sensor_id;sensor_type;location;lat;lon;timestamp;temperature;humidity
73137;DHT22;67767;45.636;11.756;2024-03-22T00:01:25;12.50;92.40
73137;DHT22;67767;45.636;11.756;2024-03-22T00:03:50;12.40;92.40
73137;DHT22;67767;45.636;11.756;2024-03-22T00:06:16;12.50;92.40
73137;DHT22;67767;45.636;11.756;2024-03-22T00:08:42;12.40;92.60
73137;DHT22;67767;45.636;11.756;2024-03-22T00:11:07;12.40;92.40
73137;DHT22;67767;45.636;11.756;2024-03-22T00:13:33;12.20;92.50
73137;DHT22;67767;45.636;11.756;2024-03-22T00:15:58;12.00;92.90
73137;DHT22;67767;45.636;11.756;2024-03-22T00:18:24;12.00;92.70
73137;DHT22;67767;45.636;11.756;2024-03-22T00:20:49;12.00;92.90
73137;DHT22;67767;45.636;11.756;2024-03-22T00:23:15;11.90;93.00
73137;DHT22;67767;45.636;11.756;2024-03-22T00:25:41;12.10;93.00
73137;DHT22;67767;45.636;11.756;2024-03-22T00:28:06;12.10;92.90
73137;DHT22;67767;45.636;11.756;2024-03-22T00:30:32;12.10;92.90
73137;DHT22;67767;45.636;11.756;2024-03-22T00:32:57;12.10;92.60
73137;DHT22;67767;45.636;11.756;2024-03-22T00:35:23;12.10;92.50
73137;DHT22;67767;45.636;11.756;2024-03-22T00:37:48;12.10;92.60
73137;DHT22;67767;45.636;11.756;2024-03-22T00:40:14;12.10;92.60
73137;DHT22;67767;45.636;11.756;2024-03-22T00:42:40;12.10;92.50
73137;DHT22;67767;45.636;11.756;2024-03-22T00:45:06;12.20;92.10
73137;DHT22;67767;45.636;11.756;2024-03-22T00:47:31;12.10;92.20
73137;DHT22;67767;45.636;11.756;2024-03-22T00:49:57;11.90;92.30
73137;DHT22;67767;45.636;11.756;2024-03-22T00:52:23;11.80;92.30
73137;DHT22;67767;45.636;11.756;2024-03-22T00:54:51;11.80;92.60
73137;DHT22;67767;45.636;11.756;2024-03-22T00:57:17;11.80;92.80
73137;DHT22;67767;45.636;11.756;2024-03-22T00:59:42;11.80;92.80
73137;DHT22;67767;45.636;11.756;2024-03-22T01:02:08;11.80;92.50
73137;DHT22;67767;45.636;11.756;2024-03-22T01:04:34;11.70;92.50
73137;DHT22;67767;45.636;11.756;2024-03-22T01:06:59;11.70;92.40
73137;DHT22;67767;45.636;11.756;2024-03-22T01:09:25;11.60;92.40
73137;DHT22;67767;45.636;11.756;2024-03-22T01:11:50;11.40;92.80
73137;DHT22;67767;45.636;11.756;2024-03-22T01:14:16;11.50;93.00
73137;DHT22;67767;45.636;11.756;2024-03-22T01:16:41;11.50;92.90
73137;DHT22;67767;45.636;11.756;2024-03-22T01:19:08;11.50;92.80
73137;DHT22;67767;45.636;11.756;2024-03-22T01:21:33;11.50;92.70
73137;DHT22;67767;45.636;11.756;2024-03-22T01:23:59;11.50;92.80
73137;DHT22;67767;45.636;11.756;2024-03-22T01:26:24;11.50;92.90
73137;DHT22;67767;45.636;11.756;2024-03-22T01:28:50;11.50;92.60
73137;DHT22;67767;45.636;11.756;2024-03-22T01:31:16;11.60;92.50
73137;DHT22;67767;45.636;11.756;2024-03-22T01:33:41;11.60;92.20
73137;DHT22;67767;45.636;11.756;2024-03-22T01:36:07;11.50;92.20
73137;DHT22;67767;45.636;11.756;2024-03-22T01:38:32;11.50;92.30
73137;DHT22;67767;45.636;11.756;2024-03-22T01:40:58;11.50;92.40
73137;DHT22;67767;45.636;11.756;2024-03-22T01:43:24;11.60;92.80
73137;DHT22;67767;45.636;11.756;2024-03-22T01:45:49;11.40;92.50
73137;DHT22;67767;45.636;11.756;2024-03-22T01:48:15;11.40;92.40
73137;DHT22;67767;45.636;11.756;2024-03-22T01:50:41;11.40;92.30
73137;DHT22;67767;45.636;11.756;2024-03-22T01:53:08;11.30;92.50
73137;DHT22;67767;45.636;11.756;2024-03-22T01:55:34;11.30;92.60
73137;DHT22;67767;45.636;11.756;2024-03-22T01:58:00;11.30;92.50
73137;DHT22;67767;45.636;11.756;2024-03-22T02:00:25;11.30;92.40
73137;DHT22;67767;45.636;11.756;2024-03-22T02:02:51;11.30;92.50
73137;DHT22;67767;45.636;11.756;2024-03-22T02:05:18;11.30;92.60
73137;DHT22;67767;45.636;11.756;2024-03-22T02:07:47;11.30;92.70
73137;DHT22;67767;45.636;11.756;2024-03-22T02:10:13;11.30;92.50
73137;DHT22;67767;45.636;11.756;2024-03-22T02:12:39;11.20;92.70
73137;DHT22;67767;45.636;11.756;2024-03-22T02:15:05;11.20;92.50
73137;DHT22;67767;45.636;11.756;2024-03-22T02:17:32;11.00;93.00
73137;DHT22;67767;45.636;11.756;2024-03-22T02:19:59;11.10;92.50
73137;DHT22;67767;45.636;11.756;2024-03-22T02:22:25;10.90;92.70
73137;DHT22;67767;45.636;11.756;2024-03-22T02:24:51;10.80;92.60
73137;DHT22;67767;45.636;11.756;2024-03-22T02:27:17;10.90;92.90
73137;DHT22;67767;45.636;11.756;2024-03-22T02:29:42;10.70;93.30
73137;DHT22;67767;45.636;11.756;2024-03-22T02:32:08;10.80;93.50
73137;DHT22;67767;45.636;11.756;2024-03-22T02:34:33;10.50;93.70
73137;DHT22;67767;45.636;11.756;2024-03-22T02:36:59;10.40;93.70
73137;DHT22;67767;45.636;11.756;2024-03-22T02:39:24;10.40;94.20
73137;DHT22;67767;45.636;11.756;2024-03-22T02:41:51;10.50;94.20
73137;DHT22;67767;45.636;11.756;2024-03-22T02:44:16;10.70;94.20
73137;DHT22;67767;45.636;11.756;2024-03-22T02:46:42;10.60;94.00
73137;DHT22;67767;45.636;11.756;2024-03-22T02:49:07;10.70;93.90
73137;DHT22;67767;45.636;11.756;2024-03-22T02:51:33;10.70;93.80
73137;DHT22;67767;45.636;11.756;2024-03-22T02:53:59;10.70;93.80
73137;DHT22;67767;45.636;11.756;2024-03-22T02:56:24;10.90;93.80
73137;DHT22;67767;45.636;11.756;2024-03-22T02:58:50;10.80;93.50
73137;DHT22;67767;45.636;11.756;2024-03-22T03:01:15;10.70;93.70
73137;DHT22;67767;45.636;11.756;2024-03-22T03:03:41;10.70;93.30
73137;DHT22;67767;45.636;11.756;2024-03-22T03:06:06;10.50;93.40
73137;DHT22;67767;45.636;11.756;2024-03-22T03:08:32;10.50;93.40
73137;DHT22;67767;45.636;11.756;2024-03-22T03:10:58;10.50;93.50
73137;DHT22;67767;45.636;11.756;2024-03-22T03:13:24;10.40;94.10
73137;DHT22;67767;45.636;11.756;2024-03-22T03:15:49;10.50;94.00
73137;DHT22;67767;45.636;11.756;2024-03-22T03:18:15;10.40;93.70
73137;DHT22;67767;45.636;11.756;2024-03-22T03:20:40;10.30;93.50
73137;DHT22;67767;45.636;11.756;2024-03-22T03:23:06;10.30;94.20
73137;DHT22;67767;45.636;11.756;2024-03-22T03:25:50;10.20;94.30
73137;DHT22;67767;45.636;11.756;2024-03-22T03:28:16;10.10;94.10
73137;DHT22;67767;45.636;11.756;2024-03-22T03:30:41;10.00;94.20
73137;DHT22;67767;45.636;11.756;2024-03-22T03:33:07;10.00;94.20
73137;DHT22;67767;45.636;11.756;2024-03-22T03:35:33;9.80;93.80
73137;DHT22;67767;45.636;11.756;2024-03-22T03:37:59;9.90;94.90
73137;DHT22;67767;45.636;11.756;2024-03-22T03:40:24;9.90;94.50
73137;DHT22;67767;45.636;11.756;2024-03-22T03:42:53;9.70;94.50
73137;DHT22;67767;45.636;11.756;2024-03-22T03:45:19;9.80;94.90
73137;DHT22;67767;45.636;11.756;2024-03-22T03:47:45;9.80;94.90
73137;DHT22;67767;45.636;11.756;2024-03-22T03:50:11;9.80;94.60
73137;DHT22;67767;45.636;11.756;2024-03-22T03:52:37;9.90;94.20
73137;DHT22;67767;45.636;11.756;2024-03-22T03:55:03;9.90;94.00
73137;DHT22;67767;45.636;11.756;2024-03-22T03:57:29;10.00;93.80
73137;DHT22;67767;45.636;11.756;2024-03-22T03:59:54;9.90;94.00
73137;DHT22;67767;45.636;11.756;2024-03-22T04:02:20;9.90;93.80
73137;DHT22;67767;45.636;11.756;2024-03-22T04:04:46;9.90;93.70
73137;DHT22;67767;45.636;11.756;2024-03-22T04:07:12;10.00;93.30
73137;DHT22;67767;45.636;11.756;2024-03-22T04:09:37;9.90;93.10
73137;DHT22;67767;45.636;11.756;2024-03-22T04:12:03;10.00;92.90
73137;DHT22;67767;45.636;11.756;2024-03-22T04:14:29;10.10;92.60
73137;DHT22;67767;45.636;11.756;2024-03-22T04:16:54;10.00;92.40
73137;DHT22;67767;45.636;11.756;2024-03-22T04:19:21;10.00;92.20
73137;DHT22;67767;45.636;11.756;2024-03-22T04:21:49;10.20;92.20
73137;DHT22;67767;45.636;11.756;2024-03-22T04:24:15;10.00;92.30
73137;DHT22;67767;45.636;11.756;2024-03-22T04:26:40;10.10;92.10
73137;DHT22;67767;45.636;11.756;2024-03-22T04:29:06;10.00;92.20
73137;DHT22;67767;45.636;11.756;2024-03-22T04:31:31;10.00;92.00
73137;DHT22;67767;45.636;11.756;2024-03-22T04:33:57;10.00;92.10
73137;DHT22;67767;45.636;11.756;2024-03-22T04:36:23;10.00;92.00
73137;DHT22;67767;45.636;11.756;2024-03-22T04:38:48;10.00;91.90
73137;DHT22;67767;45.636;11.756;2024-03-22T04:41:14;9.90;92.10
73137;DHT22;67767;45.636;11.756;2024-03-22T04:43:39;9.90;92.20
73137;DHT22;67767;45.636;11.756;2024-03-22T04:46:05;9.90;92.10
73137;DHT22;67767;45.636;11.756;2024-03-22T04:48:31;9.90;91.90
73137;DHT22;67767;45.636;11.756;2024-03-22T04:50:56;9.90;92.00
73137;DHT22;67767;45.636;11.756;2024-03-22T04:53:22;9.80;92.10
73137;DHT22;67767;45.636;11.756;2024-03-22T04:55:49;9.80;92.00
73137;DHT22;67767;45.636;11.756;2024-03-22T04:58:18;9.80;92.10
73137;DHT22;67767;45.636;11.756;2024-03-22T05:00:45;9.70;91.90
73137;DHT22;67767;45.636;11.756;2024-03-22T05:03:11;9.80;92.20
73137;DHT22;67767;45.636;11.756;2024-03-22T05:05:38;9.80;92.50
73137;DHT22;67767;45.636;11.756;2024-03-22T05:08:03;9.70;92.40
73137;DHT22;67767;45.636;11.756;2024-03-22T05:10:30;9.50;92.80
73137;DHT22;67767;45.636;11.756;2024-03-22T05:12:56;9.60;93.00
73137;DHT22;67767;45.636;11.756;2024-03-22T05:15:22;9.70;93.20
73137;DHT22;67767;45.636;11.756;2024-03-22T05:17:48;9.70;93.00
73137;DHT22;67767;45.636;11.756;2024-03-22T05:20:14;9.70;92.80
73137;DHT22;67767;45.636;11.756;2024-03-22T05:22:42;9.70;92.70
73137;DHT22;67767;45.636;11.756;2024-03-22T05:25:08;9.70;92.60
73137;DHT22;67767;45.636;11.756;2024-03-22T05:27:34;9.80;93.00
73137;DHT22;67767;45.636;11.756;2024-03-22T05:30:00;9.70;93.00
73137;DHT22;67767;45.636;11.756;2024-03-22T05:32:26;9.90;92.60
73137;DHT22;67767;45.636;11.756;2024-03-22T05:34:52;10.00;92.70
73137;DHT22;67767;45.636;11.756;2024-03-22T05:37:18;10.00;92.20
73137;DHT22;67767;45.636;11.756;2024-03-22T05:39:43;10.00;92.30
73137;DHT22;67767;45.636;11.756;2024-03-22T05:42:09;10.00;92.10
73137;DHT22;67767;45.636;11.756;2024-03-22T05:44:34;10.00;92.10
73137;DHT22;67767;45.636;11.756;2024-03-22T05:47:01;10.00;92.00
73137;DHT22;67767;45.636;11.756;2024-03-22T05:49:26;10.10;92.10
73137;DHT22;67767;45.636;11.756;2024-03-22T05:51:52;10.30;91.60
73137;DHT22;67767;45.636;11.756;2024-03-22T05:54:18;10.40;91.50
73137;DHT22;67767;45.636;11.756;2024-03-22T05:56:43;10.40;90.90
73137;DHT22;67767;45.636;11.756;2024-03-22T05:59:09;10.40;91.00
73137;DHT22;67767;45.636;11.756;2024-03-22T06:01:35;10.60;90.80
73137;DHT22;67767;45.636;11.756;2024-03-22T06:04:01;10.70;90.70
73137;DHT22;67767;45.636;11.756;2024-03-22T06:06:27;10.70;90.70
73137;DHT22;67767;45.636;11.756;2024-03-22T06:08:52;11.00;90.40
73137;DHT22;67767;45.636;11.756;2024-03-22T06:11:20;11.20;90.20
73137;DHT22;67767;45.636;11.756;2024-03-22T06:13:46;11.40;90.00
73137;DHT22;67767;45.636;11.756;2024-03-22T06:16:12;11.50;89.90
73137;DHT22;67767;45.636;11.756;2024-03-22T06:18:39;11.50;89.80
73137;DHT22;67767;45.636;11.756;2024-03-22T06:21:05;11.40;89.80
73137;DHT22;67767;45.636;11.756;2024-03-22T06:23:31;11.40;89.40
73137;DHT22;67767;45.636;11.756;2024-03-22T06:25:56;11.50;89.60
73137;DHT22;67767;45.636;11.756;2024-03-22T06:28:23;11.60;89.50
73137;DHT22;67767;45.636;11.756;2024-03-22T06:30:49;11.60;89.10
73137;DHT22;67767;45.636;11.756;2024-03-22T06:33:14;11.80;89.10
73137;DHT22;67767;45.636;11.756;2024-03-22T06:35:43;12.00;88.70
73137;DHT22;67767;45.636;11.756;2024-03-22T06:38:08;12.20;88.50
73137;DHT22;67767;45.636;11.756;2024-03-22T06:40:34;12.30;87.70
73137;DHT22;67767;45.636;11.756;2024-03-22T06:43:00;12.50;87.70
73137;DHT22;67767;45.636;11.756;2024-03-22T06:45:26;12.70;87.80
73137;DHT22;67767;45.636;11.756;2024-03-22T06:47:51;12.90;86.20
73137;DHT22;67767;45.636;11.756;2024-03-22T06:50:17;13.00;85.80
73137;DHT22;67767;45.636;11.756;2024-03-22T06:52:43;13.10;85.90
73137;DHT22;67767;45.636;11.756;2024-03-22T06:55:09;13.30;85.40
73137;DHT22;67767;45.636;11.756;2024-03-22T06:57:37;13.30;85.20
73137;DHT22;67767;45.636;11.756;2024-03-22T07:00:02;13.50;84.80
73137;DHT22;67767;45.636;11.756;2024-03-22T07:02:29;13.80;84.20
73137;DHT22;67767;45.636;11.756;2024-03-22T07:04:54;13.80;84.10
73137;DHT22;67767;45.636;11.756;2024-03-22T07:07:20;13.90;84.10
73137;DHT22;67767;45.636;11.756;2024-03-22T07:09:45;14.10;84.10
73137;DHT22;67767;45.636;11.756;2024-03-22T07:12:13;14.20;84.00
73137;DHT22;67767;45.636;11.756;2024-03-22T07:14:38;14.40;84.00
73137;DHT22;67767;45.636;11.756;2024-03-22T07:17:04;14.70;84.30
73137;DHT22;67767;45.636;11.756;2024-03-22T07:19:31;14.80;84.00
73137;DHT22;67767;45.636;11.756;2024-03-22T07:21:56;15.00;84.10
73137;DHT22;67767;45.636;11.756;2024-03-22T07:24:25;15.20;84.00
73137;DHT22;67767;45.636;11.756;2024-03-22T07:26:51;15.40;83.70
73137;DHT22;67767;45.636;11.756;2024-03-22T07:29:16;15.60;82.40
73137;DHT22;67767;45.636;11.756;2024-03-22T07:31:42;15.80;81.60
73137;DHT22;67767;45.636;11.756;2024-03-22T07:34:08;16.00;81.10
73137;DHT22;67767;45.636;11.756;2024-03-22T07:36:37;16.10;81.00
73137;DHT22;67767;45.636;11.756;2024-03-22T07:39:03;16.20;80.30
73137;DHT22;67767;45.636;11.756;2024-03-22T07:41:32;16.30;79.90
73137;DHT22;67767;45.636;11.756;2024-03-22T07:44:00;16.50;80.00
73137;DHT22;67767;45.636;11.756;2024-03-22T07:46:26;16.70;80.00
73137;DHT22;67767;45.636;11.756;2024-03-22T07:48:52;17.20;79.50
73137;DHT22;67767;45.636;11.756;2024-03-22T07:51:19;17.30;79.10
73137;DHT22;67767;45.636;11.756;2024-03-22T07:53:44;17.40;79.40
73137;DHT22;67767;45.636;11.756;2024-03-22T07:56:10;17.50;79.20
73137;DHT22;67767;45.636;11.756;2024-03-22T07:58:36;17.50;78.20
73137;DHT22;67767;45.636;11.756;2024-03-22T08:01:02;17.70;77.60
73137;DHT22;67767;45.636;11.756;2024-03-22T08:03:27;17.80;77.40
73137;DHT22;67767;45.636;11.756;2024-03-22T08:05:53;18.00;77.30
73137;DHT22;67767;45.636;11.756;2024-03-22T08:08:19;18.00;78.20
73137;DHT22;67767;45.636;11.756;2024-03-22T08:10:44;18.20;76.50
73137;DHT22;67767;45.636;11.756;2024-03-22T08:13:10;18.30;76.20
73137;DHT22;67767;45.636;11.756;2024-03-22T08:15:36;18.40;75.90
73137;DHT22;67767;45.636;11.756;2024-03-22T08:18:02;18.50;75.50
73137;DHT22;67767;45.636;11.756;2024-03-22T08:20:28;18.60;74.90
73137;DHT22;67767;45.636;11.756;2024-03-22T08:22:54;18.70;74.60
73137;DHT22;67767;45.636;11.756;2024-03-22T08:25:19;18.80;74.00
73137;DHT22;67767;45.636;11.756;2024-03-22T08:27:46;18.90;74.20
73137;DHT22;67767;45.636;11.756;2024-03-22T08:30:13;18.80;73.90
73137;DHT22;67767;45.636;11.756;2024-03-22T08:32:38;19.20;74.70
73137;DHT22;67767;45.636;11.756;2024-03-22T08:35:05;19.00;74.70
73137;DHT22;67767;45.636;11.756;2024-03-22T08:37:31;19.20;75.00
73137;DHT22;67767;45.636;11.756;2024-03-22T08:39:57;19.30;74.60
73137;DHT22;67767;45.636;11.756;2024-03-22T08:42:22;19.40;75.20
73137;DHT22;67767;45.636;11.756;2024-03-22T08:44:48;19.50;75.20
73137;DHT22;67767;45.636;11.756;2024-03-22T08:47:14;19.70;74.10
73137;DHT22;67767;45.636;11.756;2024-03-22T08:49:40;19.60;73.70
73137;DHT22;67767;45.636;11.756;2024-03-22T08:52:07;19.70;74.00
73137;DHT22;67767;45.636;11.756;2024-03-22T08:54:32;19.70;73.90
73137;DHT22;67767;45.636;11.756;2024-03-22T08:56:58;19.50;73.60
73137;DHT22;67767;45.636;11.756;2024-03-22T08:59:24;19.80;73.50
73137;DHT22;67767;45.636;11.756;2024-03-22T09:01:51;19.70;72.90
73137;DHT22;67767;45.636;11.756;2024-03-22T09:04:17;19.70;73.00
73137;DHT22;67767;45.636;11.756;2024-03-22T09:06:42;19.90;73.00
73137;DHT22;67767;45.636;11.756;2024-03-22T09:09:08;20.20;72.80
73137;DHT22;67767;45.636;11.756;2024-03-22T09:11:34;20.10;72.20
73137;DHT22;67767;45.636;11.756;2024-03-22T09:14:00;20.10;72.40
73137;DHT22;67767;45.636;11.756;2024-03-22T09:16:25;20.30;72.20
73137;DHT22;67767;45.636;11.756;2024-03-22T09:18:51;20.50;72.40
73137;DHT22;67767;45.636;11.756;2024-03-22T09:21:16;20.50;72.50
73137;DHT22;67767;45.636;11.756;2024-03-22T09:23:42;20.30;72.00
73137;DHT22;67767;45.636;11.756;2024-03-22T09:26:08;20.30;72.50
73137;DHT22;67767;45.636;11.756;2024-03-22T09:28:33;20.60;72.80
73137;DHT22;67767;45.636;11.756;2024-03-22T09:31:06;20.80;72.50
73137;DHT22;67767;45.636;11.756;2024-03-22T09:33:35;21.00;70.80
73137;DHT22;67767;45.636;11.756;2024-03-22T09:36:01;21.10;70.20
73137;DHT22;67767;45.636;11.756;2024-03-22T09:38:27;21.20;70.10
73137;DHT22;67767;45.636;11.756;2024-03-22T09:40:53;21.30;70.50
73137;DHT22;67767;45.636;11.756;2024-03-22T09:43:22;21.40;69.70
73137;DHT22;67767;45.636;11.756;2024-03-22T09:45:51;21.20;69.40
73137;DHT22;67767;45.636;11.756;2024-03-22T09:48:18;21.30;68.70
73137;DHT22;67767;45.636;11.756;2024-03-22T09:50:46;21.20;68.10
73137;DHT22;67767;45.636;11.756;2024-03-22T09:53:13;21.00;68.20
73137;DHT22;67767;45.636;11.756;2024-03-22T09:55:40;20.90;70.90
73137;DHT22;67767;45.636;11.756;2024-03-22T09:58:10;20.80;71.40
73137;DHT22;67767;45.636;11.756;2024-03-22T10:00:35;21.10;70.20
73137;DHT22;67767;45.636;11.756;2024-03-22T10:03:01;21.50;70.20
73137;DHT22;67767;45.636;11.756;2024-03-22T10:05:29;21.60;70.00
73137;DHT22;67767;45.636;11.756;2024-03-22T10:07:55;21.30;70.00
73137;DHT22;67767;45.636;11.756;2024-03-22T10:10:21;21.50;70.10
73137;DHT22;67767;45.636;11.756;2024-03-22T10:12:47;21.60;68.70
73137;DHT22;67767;45.636;11.756;2024-03-22T10:15:13;21.40;68.50
73137;DHT22;67767;45.636;11.756;2024-03-22T10:17:39;21.40;66.40
73137;DHT22;67767;45.636;11.756;2024-03-22T10:20:05;21.20;65.90
73137;DHT22;67767;45.636;11.756;2024-03-22T10:22:43;21.50;66.00
73137;DHT22;67767;45.636;11.756;2024-03-22T10:25:09;21.40;63.70
73137;DHT22;67767;45.636;11.756;2024-03-22T10:27:38;21.40;61.80
73137;DHT22;67767;45.636;11.756;2024-03-22T10:30:08;21.50;61.70
73137;DHT22;67767;45.636;11.756;2024-03-22T10:32:35;21.40;61.80
73137;DHT22;67767;45.636;11.756;2024-03-22T10:35:03;21.70;63.80
73137;DHT22;67767;45.636;11.756;2024-03-22T10:37:34;21.60;63.90
73137;DHT22;67767;45.636;11.756;2024-03-22T10:40:02;21.90;63.60
73137;DHT22;67767;45.636;11.756;2024-03-22T10:42:38;21.70;63.20
73137;DHT22;67767;45.636;11.756;2024-03-22T10:45:05;21.90;64.50
73137;DHT22;67767;45.636;11.756;2024-03-22T10:47:33;22.10;65.00
73137;DHT22;67767;45.636;11.756;2024-03-22T10:50:09;22.00;64.30
73137;DHT22;67767;45.636;11.756;2024-03-22T10:52:52;22.10;62.40
73137;DHT22;67767;45.636;11.756;2024-03-22T10:55:28;22.20;60.80
73137;DHT22;67767;45.636;11.756;2024-03-22T10:57:56;21.90;60.50
73137;DHT22;67767;45.636;11.756;2024-03-22T11:00:32;22.20;60.60
73137;DHT22;67767;45.636;11.756;2024-03-22T11:02:58;22.50;60.60
73137;DHT22;67767;45.636;11.756;2024-03-22T11:05:26;22.90;60.40
73137;DHT22;67767;45.636;11.756;2024-03-22T11:08:02;23.20;59.20
73137;DHT22;67767;45.636;11.756;2024-03-22T11:10:30;23.10;58.30
73137;DHT22;67767;45.636;11.756;2024-03-22T11:13:01;23.20;57.10
73137;DHT22;67767;45.636;11.756;2024-03-22T11:15:31;23.30;57.60
73137;DHT22;67767;45.636;11.756;2024-03-22T11:17:57;23.40;57.20
73137;DHT22;67767;45.636;11.756;2024-03-22T11:20:23;23.60;55.00
73137;DHT22;67767;45.636;11.756;2024-03-22T11:22:50;23.30;58.30
73137;DHT22;67767;45.636;11.756;2024-03-22T11:25:16;23.40;56.40
73137;DHT22;67767;45.636;11.756;2024-03-22T11:27:42;23.50;57.00
73137;DHT22;67767;45.636;11.756;2024-03-22T11:30:07;23.80;55.10
73137;DHT22;67767;45.636;11.756;2024-03-22T11:32:33;23.80;55.00
73137;DHT22;67767;45.636;11.756;2024-03-22T11:35:11;23.30;56.20
73137;DHT22;67767;45.636;11.756;2024-03-22T11:37:41;23.60;57.80
73137;DHT22;67767;45.636;11.756;2024-03-22T11:40:10;24.20;55.30
73137;DHT22;67767;45.636;11.756;2024-03-22T11:42:47;24.40;56.10
73137;DHT22;67767;45.636;11.756;2024-03-22T11:45:16;24.50;54.30
73137;DHT22;67767;45.636;11.756;2024-03-22T11:47:43;24.70;54.20
73137;DHT22;67767;45.636;11.756;2024-03-22T11:50:11;24.50;53.00
73137;DHT22;67767;45.636;11.756;2024-03-22T11:52:43;24.50;54.50
73137;DHT22;67767;45.636;11.756;2024-03-22T11:55:10;24.80;54.70
73137;DHT22;67767;45.636;11.756;2024-03-22T11:57:36;25.10;54.60
73137;DHT22;67767;45.636;11.756;2024-03-22T12:00:03;24.60;53.70
73137;DHT22;67767;45.636;11.756;2024-03-22T12:02:32;24.30;53.60
73137;DHT22;67767;45.636;11.756;2024-03-22T12:04:57;24.50;53.90
73137;DHT22;67767;45.636;11.756;2024-03-22T12:07:24;24.60;53.80
73137;DHT22;67767;45.636;11.756;2024-03-22T12:09:49;25.00;54.10
73137;DHT22;67767;45.636;11.756;2024-03-22T12:12:15;25.80;51.30
73137;DHT22;67767;45.636;11.756;2024-03-22T12:14:41;26.40;51.30
73137;DHT22;67767;45.636;11.756;2024-03-22T12:17:07;26.30;51.20
73137;DHT22;67767;45.636;11.756;2024-03-22T12:19:33;25.40;52.40
73137;DHT22;67767;45.636;11.756;2024-03-22T12:21:59;25.40;53.40
73137;DHT22;67767;45.636;11.756;2024-03-22T12:24:25;25.80;52.30
73137;DHT22;67767;45.636;11.756;2024-03-22T12:26:53;25.80;51.80
73137;DHT22;67767;45.636;11.756;2024-03-22T12:29:19;25.80;53.00
73137;DHT22;67767;45.636;11.756;2024-03-22T12:31:46;25.40;54.40
73137;DHT22;67767;45.636;11.756;2024-03-22T12:34:12;25.70;53.00
73137;DHT22;67767;45.636;11.756;2024-03-22T12:36:38;26.50;51.70
73137;DHT22;67767;45.636;11.756;2024-03-22T12:39:04;26.50;50.00
73137;DHT22;67767;45.636;11.756;2024-03-22T12:41:30;25.50;52.70
73137;DHT22;67767;45.636;11.756;2024-03-22T12:43:57;25.30;52.10
73137;DHT22;67767;45.636;11.756;2024-03-22T12:46:22;25.30;53.60
73137;DHT22;67767;45.636;11.756;2024-03-22T12:48:48;25.70;52.60
73137;DHT22;67767;45.636;11.756;2024-03-22T12:51:14;26.00;52.80
73137;DHT22;67767;45.636;11.756;2024-03-22T12:53:40;26.60;50.90
73137;DHT22;67767;45.636;11.756;2024-03-22T12:56:06;27.20;48.80
73137;DHT22;67767;45.636;11.756;2024-03-22T12:58:31;27.00;48.50
73137;DHT22;67767;45.636;11.756;2024-03-22T13:00:58;26.70;49.20
73137;DHT22;67767;45.636;11.756;2024-03-22T13:03:25;26.00;51.90
73137;DHT22;67767;45.636;11.756;2024-03-22T13:05:51;26.10;52.10
73137;DHT22;67767;45.636;11.756;2024-03-22T13:08:16;25.50;52.10
73137;DHT22;67767;45.636;11.756;2024-03-22T13:10:42;25.70;51.50
73137;DHT22;67767;45.636;11.756;2024-03-22T13:13:10;25.40;51.20
73137;DHT22;67767;45.636;11.756;2024-03-22T13:15:36;25.50;51.60
73137;DHT22;67767;45.636;11.756;2024-03-22T13:18:04;25.20;51.70
73137;DHT22;67767;45.636;11.756;2024-03-22T13:20:30;25.50;51.10
73137;DHT22;67767;45.636;11.756;2024-03-22T13:22:56;26.40;49.40
73137;DHT22;67767;45.636;11.756;2024-03-22T13:25:22;26.70;48.70
73137;DHT22;67767;45.636;11.756;2024-03-22T13:27:47;25.90;51.80
73137;DHT22;67767;45.636;11.756;2024-03-22T13:30:14;26.20;50.80
73137;DHT22;67767;45.636;11.756;2024-03-22T13:32:40;27.20;49.00
73137;DHT22;67767;45.636;11.756;2024-03-22T13:35:07;26.70;49.70
73137;DHT22;67767;45.636;11.756;2024-03-22T13:37:33;27.00;49.00
73137;DHT22;67767;45.636;11.756;2024-03-22T13:39:59;27.00;48.30
73137;DHT22;67767;45.636;11.756;2024-03-22T13:42:25;27.10;47.40
73137;DHT22;67767;45.636;11.756;2024-03-22T13:44:51;26.80;47.90
73137;DHT22;67767;45.636;11.756;2024-03-22T13:47:17;25.50;50.00
73137;DHT22;67767;45.636;11.756;2024-03-22T13:49:43;26.00;49.70
73137;DHT22;67767;45.636;11.756;2024-03-22T13:52:13;27.10;47.10
73137;DHT22;67767;45.636;11.756;2024-03-22T13:54:38;27.40;46.70
73137;DHT22;67767;45.636;11.756;2024-03-22T13:57:04;26.70;46.70
73137;DHT22;67767;45.636;11.756;2024-03-22T13:59:30;26.00;48.10
73137;DHT22;67767;45.636;11.756;2024-03-22T14:01:58;26.20;47.90
73137;DHT22;67767;45.636;11.756;2024-03-22T14:04:24;26.60;46.80
73137;DHT22;67767;45.636;11.756;2024-03-22T14:06:52;27.10;46.30
73137;DHT22;67767;45.636;11.756;2024-03-22T14:09:18;27.20;45.20
73137;DHT22;67767;45.636;11.756;2024-03-22T14:11:43;27.40;45.10
73137;DHT22;67767;45.636;11.756;2024-03-22T14:14:10;28.10;43.80
73137;DHT22;67767;45.636;11.756;2024-03-22T14:16:39;27.80;44.90
73137;DHT22;67767;45.636;11.756;2024-03-22T14:19:05;27.80;44.20
73137;DHT22;67767;45.636;11.756;2024-03-22T14:21:30;28.10;44.10
73137;DHT22;67767;45.636;11.756;2024-03-22T14:23:56;27.60;44.00
73137;DHT22;67767;45.636;11.756;2024-03-22T14:26:22;26.30;46.70
73137;DHT22;67767;45.636;11.756;2024-03-22T14:28:49;26.00;46.60
73137;DHT22;67767;45.636;11.756;2024-03-22T14:31:16;26.10;47.50
73137;DHT22;67767;45.636;11.756;2024-03-22T14:33:42;25.90;48.70
73137;DHT22;67767;45.636;11.756;2024-03-22T14:36:08;25.30;49.20
73137;DHT22;67767;45.636;11.756;2024-03-22T14:38:35;24.70;49.30
73137;DHT22;67767;45.636;11.756;2024-03-22T14:41:01;24.10;50.60
73137;DHT22;67767;45.636;11.756;2024-03-22T14:43:28;23.90;50.90
73137;DHT22;67767;45.636;11.756;2024-03-22T14:45:54;23.80;51.20
73137;DHT22;67767;45.636;11.756;2024-03-22T14:48:20;23.80;50.70
73137;DHT22;67767;45.636;11.756;2024-03-22T14:50:46;23.70;52.30
73137;DHT22;67767;45.636;11.756;2024-03-22T14:53:12;23.50;53.50
73137;DHT22;67767;45.636;11.756;2024-03-22T14:55:38;23.10;54.30
73137;DHT22;67767;45.636;11.756;2024-03-22T14:58:05;23.10;54.20
73137;DHT22;67767;45.636;11.756;2024-03-22T15:00:31;23.00;53.40
73137;DHT22;67767;45.636;11.756;2024-03-22T15:02:56;22.80;53.50
73137;DHT22;67767;45.636;11.756;2024-03-22T15:05:22;22.80;54.00
73137;DHT22;67767;45.636;11.756;2024-03-22T15:07:48;22.80;54.00
73137;DHT22;67767;45.636;11.756;2024-03-22T15:10:13;22.70;53.90
73137;DHT22;67767;45.636;11.756;2024-03-22T15:12:39;22.90;54.00